Pagrindinis puslapis
METAR-TAF:

METAR-TAF

Oro uostai :

Kunėjas, Italija

platuma: 44-32-47N, ilguma: 007-37-20E, Aukštis: 386 m

Dabartinis oras

Ataskaita buvo paskelbta 1 valandą ir 5 minutes, ne 17:50 UTC
Vėjas 2 kt nuo kintamojo kryptimis
Temperatūra 17°C
Drėgmė 94%
Slėgis 1022 hPa
Matomumas: 8000 m
Su prošvaistėmis ne aukštis 3000 ft

METAR: LIMZ 191750Z VRB02KT 8000 BKN030 17/16 Q1022

Laikas: 20:55 (18:55 UTC)

Prognozė

Ataskaita buvo paskelbta 1 valandą ir 55 minutes, ne 17:00 UTC
Prognozė galioja nuo 19 metu 18 UTC su 20 metu 18 UTC
Vėjas 5 kt nuo kintamojo kryptimis
Matomumas: 7000 m
Su prošvaistėmis ne aukštis 1000 ft
Tapsmas
nuo 19 metu 23 UTC su 20 metu 01 UTC
Išsisklaidę debesys ne aukštis 2000 ft
Išsisklaidę debesys ne aukštis 5000 ft

TAF: LIMZ 191700Z 1918/2018 VRB05KT 7000 BKN010 BECMG 1923/2001 SCT020 SCT050

Orai ataskaitas ir orų prognozės (METAR, TAF).

turimą stotys yra geltonos ir raudonos taškus žemėlapyje.

Perkelti pele per norėdami pamatyti stoties vardą.

Tada spustelėkite, norėdami matyti oro stebėjimo ir prognozės.

Norėdami pakeisti žemėlapį: spustelėkite ant žalios mygtukų su juodo kryžiaus žemyn,; žalią mygtuką su brūkšneliu, jei norite nutolinti; arba žalių rodyklių gretimoms žemėlapius.


METAR-TAF: